createdAt,value
2023-10-07T00:01:01.139Z,94807.41
2023-10-07T00:03:28.105Z,94811.34
2023-10-07T00:06:01.705Z,94808.25
2023-10-07T00:08:29.499Z,94812.50
2023-10-07T00:11:03.036Z,94814.81
2023-10-07T00:13:32.931Z,94800.44
2023-10-07T00:16:01.149Z,94799.25
2023-10-07T00:18:29.256Z,94799.13
2023-10-07T00:20:56.859Z,94801.78
2023-10-07T00:23:27.511Z,94789.69
2023-10-07T00:25:56.326Z,94793.13
2023-10-07T00:28:34.592Z,94795.00
2023-10-07T00:31:08.142Z,94786.03
2023-10-07T00:33:51.585Z,94796.69
2023-10-07T00:36:41.764Z,94790.63
2023-10-07T00:39:10.346Z,94780.38
2023-10-07T00:41:46.526Z,94784.69
2023-10-07T00:44:24.408Z,94774.50
2023-10-07T00:47:06.854Z,94781.47
2023-10-07T00:49:52.054Z,94779.91
2023-10-07T00:52:29.347Z,94775.97
2023-10-07T00:55:05.956Z,94771.31
2023-10-07T00:57:38.931Z,94785.28
2023-10-07T01:00:24.841Z,94769.31
2023-10-07T01:02:52.719Z,94768.03
2023-10-07T01:05:28.413Z,94771.97
2023-10-07T01:07:55.514Z,94771.88
2023-10-07T01:10:32.700Z,94767.59
2023-10-07T01:13:04.855Z,94759.78
2023-10-07T01:15:36.015Z,94763.25
2023-10-07T01:18:06.386Z,94763.97
2023-10-07T01:20:49.240Z,94757.22
2023-10-07T01:23:20.134Z,94753.38
2023-10-07T01:25:51.548Z,94759.97
2023-10-07T01:28:18.739Z,94755.69
2023-10-07T01:31:03.818Z,94752.97
2023-10-07T01:33:40.277Z,94758.69
2023-10-07T01:36:17.273Z,94759.75
2023-10-07T01:38:53.597Z,94757.75
2023-10-07T01:41:21.711Z,94755.75
2023-10-07T01:44:00.265Z,94758.81
2023-10-07T01:46:28.986Z,94758.75
2023-10-07T01:48:58.522Z,94752.09
2023-10-07T01:51:30.451Z,94751.66
2023-10-07T01:54:04.875Z,94749.22
2023-10-07T01:56:33.080Z,94753.03
2023-10-07T01:59:10.990Z,94749.88
2023-10-07T02:01:42.690Z,94749.28
2023-10-07T02:04:19.482Z,94752.38
2023-10-07T02:06:55.491Z,94742.94
2023-10-07T02:09:26.929Z,94744.41
2023-10-07T02:11:55.300Z,94744.78
2023-10-07T02:14:26.962Z,94745.06
2023-10-07T02:16:55.339Z,94747.00
2023-10-07T02:19:32.937Z,94743.13
2023-10-07T02:22:01.488Z,94746.47
2023-10-07T02:24:31.394Z,94745.53
2023-10-07T02:27:04.788Z,94748.34
2023-10-07T02:29:32.544Z,94747.13
2023-10-07T02:32:08.382Z,94748.69
2023-10-07T02:34:35.310Z,94744.31
2023-10-07T02:37:22.298Z,94746.16
2023-10-07T02:39:52.653Z,94746.88
2023-10-07T02:42:22.864Z,94741.78
2023-10-07T02:45:02.102Z,94748.28
2023-10-07T02:47:32.999Z,94750.03
2023-10-07T02:50:02.367Z,94745.16
2023-10-07T02:52:37.169Z,94747.19
2023-10-07T02:55:19.914Z,94754.88
2023-10-07T02:57:58.879Z,94749.91
2023-10-07T03:00:39.661Z,94759.16
2023-10-07T03:03:16.059Z,94750.59
2023-10-07T03:06:15.833Z,94745.06
2023-10-07T03:08:44.999Z,94748.59
2023-10-07T03:11:12.983Z,94748.06
2023-10-07T03:13:47.242Z,94747.19
2023-10-07T03:16:18.272Z,94749.81
2023-10-07T03:18:56.574Z,94758.06
2023-10-07T03:21:36.810Z,94760.94
2023-10-07T03:24:12.595Z,94768.38
2023-10-07T03:26:41.855Z,94774.59
2023-10-07T03:29:09.230Z,94763.28
2023-10-07T03:31:39.828Z,94760.13
2023-10-07T03:34:10.142Z,94763.66
2023-10-07T03:36:42.934Z,94768.28
2023-10-07T03:39:17.266Z,94769.34
2023-10-07T03:41:53.539Z,94764.25
2023-10-07T03:44:22.262Z,94773.88
2023-10-07T03:46:55.582Z,94773.00
2023-10-07T03:49:23.669Z,94772.91
2023-10-07T03:52:04.507Z,94774.50
2023-10-07T03:54:31.974Z,94770.53
2023-10-07T03:57:01.735Z,94770.91
2023-10-07T03:59:33.146Z,94768.53
2023-10-07T04:02:00.322Z,94769.22
2023-10-07T04:04:27.600Z,94763.34
2023-10-07T04:06:54.404Z,94773.88
2023-10-07T04:09:28.532Z,94775.81
2023-10-07T04:11:55.238Z,94779.28
2023-10-07T04:14:32.174Z,94779.03
2023-10-07T04:17:07.806Z,94782.19
2023-10-07T04:19:42.026Z,94789.34
2023-10-07T04:22:09.984Z,94784.50
2023-10-07T04:24:39.382Z,94780.22
2023-10-07T04:27:07.237Z,94789.38
2023-10-07T04:29:34.418Z,94781.25
2023-10-07T04:32:28.843Z,94782.03
2023-10-07T04:35:21.944Z,94782.38
2023-10-07T04:37:48.885Z,94797.75
2023-10-07T04:40:16.283Z,94791.56
2023-10-07T04:43:01.582Z,94794.53
2023-10-07T04:45:38.637Z,94803.88
2023-10-07T04:48:24.058Z,94808.88
2023-10-07T04:51:08.716Z,94808.09
2023-10-07T04:53:41.701Z,94814.97
2023-10-07T04:56:09.982Z,94822.22
2023-10-07T04:58:41.049Z,94820.28
2023-10-07T05:01:31.370Z,94817.47
2023-10-07T05:04:05.905Z,94811.06
2023-10-07T05:06:35.853Z,94817.25
2023-10-07T05:09:24.470Z,94817.25
2023-10-07T05:11:51.756Z,94808.50
2023-10-07T05:14:23.815Z,94808.84
2023-10-07T05:16:51.041Z,94805.78
2023-10-07T05:19:23.756Z,94815.38
2023-10-07T05:22:06.474Z,94809.63
2023-10-07T05:24:34.241Z,94805.25
2023-10-07T05:27:01.952Z,94795.97
2023-10-07T05:29:29.530Z,94800.59
2023-10-07T05:31:57.810Z,94804.53
2023-10-07T05:34:31.262Z,94802.28
2023-10-07T05:37:12.462Z,94812.56
2023-10-07T05:39:42.295Z,94812.28
2023-10-07T05:44:40.729Z,94803.59
2023-10-07T05:47:09.863Z,94799.63
2023-10-07T05:49:39.086Z,94789.94
2023-10-07T05:52:06.737Z,94782.59
2023-10-07T05:54:33.875Z,94780.53
2023-10-07T05:57:03.620Z,94770.16
2023-10-07T05:59:34.651Z,94772.84
2023-10-07T06:02:07.259Z,94770.47
2023-10-07T06:04:35.141Z,94776.63
2023-10-07T06:07:02.065Z,94782.59
2023-10-07T06:09:29.920Z,94782.69
2023-10-07T06:12:00.723Z,94781.50
2023-10-07T06:14:27.641Z,94797.41
2023-10-07T06:16:57.232Z,94799.00
2023-10-07T06:19:24.796Z,94817.16
2023-10-07T06:21:57.888Z,94826.25
2023-10-07T06:24:25.133Z,94827.28
2023-10-07T06:26:55.317Z,94840.19
2023-10-07T06:29:22.160Z,94838.66
2023-10-07T06:32:09.901Z,94834.59
2023-10-07T06:34:42.361Z,94827.19
2023-10-07T06:37:09.285Z,94830.47
2023-10-07T06:39:36.119Z,94828.31
2023-10-07T06:42:02.825Z,94826.81
2023-10-07T06:44:31.679Z,94829.53
2023-10-07T06:46:58.520Z,94823.66
2023-10-07T06:49:25.375Z,94824.00
2023-10-07T06:51:58.070Z,94834.94
2023-10-07T06:54:33.123Z,94848.22
2023-10-07T06:57:05.580Z,94849.72
2023-10-07T06:59:32.358Z,94862.34
2023-10-07T07:02:07.006Z,94859.56
2023-10-07T07:04:36.797Z,94861.25
2023-10-07T07:07:13.028Z,94857.41
2023-10-07T07:09:51.736Z,94866.84
2023-10-07T07:12:24.512Z,94859.75
2023-10-07T07:14:52.487Z,94862.22
2023-10-07T07:17:31.018Z,94870.66
2023-10-07T07:20:13.539Z,94868.94
2023-10-07T07:22:46.231Z,94870.28
2023-10-07T07:25:24.016Z,94858.31
2023-10-07T07:27:53.691Z,94857.69
2023-10-07T07:30:31.230Z,94856.56
2023-10-07T07:33:01.115Z,94856.66
2023-10-07T07:35:41.374Z,94851.00
2023-10-07T07:38:30.809Z,94853.00
2023-10-07T07:41:12.734Z,94845.84
2023-10-07T07:43:41.196Z,94848.66
2023-10-07T07:46:24.665Z,94846.34
2023-10-07T07:48:55.015Z,94865.84
2023-10-07T07:51:25.752Z,94868.78
2023-10-07T07:53:53.319Z,94875.91
2023-10-07T07:56:21.335Z,94877.72
2023-10-07T07:58:49.128Z,94876.84
2023-10-07T08:01:21.048Z,94883.69
2023-10-07T08:03:48.861Z,94872.44
2023-10-07T08:06:22.420Z,94861.59
2023-10-07T08:08:50.441Z,94856.03
2023-10-07T08:11:19.333Z,94849.81
2023-10-07T08:13:47.035Z,94840.88
2023-10-07T08:16:21.136Z,94841.28
2023-10-07T08:18:55.527Z,94837.59
2023-10-07T08:21:29.799Z,94846.19
2023-10-07T08:24:02.518Z,94848.19
2023-10-07T08:26:29.954Z,94850.00
2023-10-07T08:28:59.577Z,94854.00
2023-10-07T08:31:40.764Z,94851.88
2023-10-07T08:34:08.805Z,94851.78
2023-10-07T08:36:37.650Z,94860.19
2023-10-07T08:39:09.674Z,94843.94
2023-10-07T08:41:42.005Z,94842.34
2023-10-07T08:44:13.659Z,94840.66
2023-10-07T08:46:54.782Z,94837.69
2023-10-07T08:49:28.080Z,94833.50
2023-10-07T08:51:56.141Z,94829.25
2023-10-07T08:54:33.222Z,94827.50
2023-10-07T08:57:10.193Z,94821.19
2023-10-07T08:59:39.101Z,94819.91
2023-10-07T09:02:05.937Z,94812.81
2023-10-07T09:04:33.218Z,94816.03
2023-10-07T09:07:01.505Z,94820.34
2023-10-07T09:09:34.244Z,94818.59
2023-10-07T09:12:09.235Z,94822.75
2023-10-07T09:14:36.455Z,94822.84
2023-10-07T09:17:06.130Z,94823.16
2023-10-07T09:19:35.489Z,94819.50
2023-10-07T09:22:11.589Z,94824.66
2023-10-07T09:24:45.099Z,94831.50
2023-10-07T09:27:14.526Z,94838.81
2023-10-07T09:29:50.187Z,94837.22
2023-10-07T09:32:22.885Z,94832.84
2023-10-07T09:34:49.915Z,94838.53
2023-10-07T09:37:22.534Z,94819.59
2023-10-07T09:39:56.765Z,94825.69
2023-10-07T09:42:37.528Z,94836.53
2023-10-07T09:45:08.442Z,94832.75
2023-10-07T09:47:41.661Z,94823.97
2023-10-07T09:50:27.061Z,94820.75
2023-10-07T09:53:26.312Z,94822.47
2023-10-07T09:56:25.664Z,94828.41
2023-10-07T09:59:15.223Z,94822.16
2023-10-07T10:02:17.668Z,94811.53
2023-10-07T10:05:13.055Z,94815.94
2023-10-07T10:08:12.537Z,94819.81
2023-10-07T10:10:46.006Z,94820.78
2023-10-07T10:13:30.451Z,94811.28
2023-10-07T10:16:02.092Z,94820.56
2023-10-07T10:18:41.681Z,94824.16
2023-10-07T10:21:14.015Z,94822.88
2023-10-07T10:23:43.346Z,94821.97
2023-10-07T10:26:15.807Z,94828.47
2023-10-07T10:28:43.244Z,94825.06
2023-10-07T10:31:22.414Z,94826.47
2023-10-07T10:33:53.554Z,94818.53
2023-10-07T10:36:23.788Z,94812.59
2023-10-07T10:38:50.540Z,94801.91
2023-10-07T10:41:31.050Z,94817.53
2023-10-07T10:44:08.077Z,94809.44
2023-10-07T10:46:45.794Z,94805.06
2023-10-07T10:49:19.252Z,94803.47
2023-10-07T10:51:51.639Z,94809.28
2023-10-07T10:54:19.979Z,94821.34
2023-10-07T10:57:08.935Z,94815.50
2023-10-07T10:59:45.200Z,94819.25
2023-10-07T11:02:18.069Z,94821.00
2023-10-07T11:04:47.065Z,94815.31
2023-10-07T11:07:15.769Z,94819.56
2023-10-07T11:09:44.171Z,94812.63
2023-10-07T11:12:13.824Z,94813.75
2023-10-07T11:14:44.485Z,94818.25
2023-10-07T11:17:13.585Z,94808.94
2023-10-07T11:19:43.691Z,94802.38
2023-10-07T11:22:15.227Z,94804.06
2023-10-07T11:24:41.980Z,94801.84
2023-10-07T11:27:10.080Z,94786.44
2023-10-07T11:29:36.982Z,94791.78
2023-10-07T11:32:05.666Z,94798.91
2023-10-07T11:34:40.139Z,94791.59
2023-10-07T11:37:10.390Z,94787.66
2023-10-07T11:39:44.325Z,94788.25
2023-10-07T11:42:15.447Z,94789.31
2023-10-07T11:44:43.472Z,94794.25
2023-10-07T11:47:12.240Z,94800.91
2023-10-07T11:49:39.219Z,94792.13
2023-10-07T11:52:06.811Z,94789.91
2023-10-07T11:54:35.637Z,94795.47
2023-10-07T11:57:06.062Z,94797.59
2023-10-07T11:59:35.087Z,94790.81
2023-10-07T12:02:02.423Z,94796.28
2023-10-07T12:04:29.284Z,94792.84
2023-10-07T12:06:55.999Z,94791.47
2023-10-07T12:09:23.406Z,94799.72
2023-10-07T12:11:51.219Z,94794.50
2023-10-07T12:14:21.217Z,94787.69
2023-10-07T12:16:48.103Z,94790.53
2023-10-07T12:19:18.738Z,94800.41
2023-10-07T12:21:49.029Z,94802.59
2023-10-07T12:24:17.525Z,94796.75
2023-10-07T12:26:48.017Z,94799.63
2023-10-07T12:29:14.973Z,94807.59
2023-10-07T12:31:43.579Z,94801.63
2023-10-07T12:34:12.136Z,94794.97
2023-10-07T12:36:39.595Z,94794.84
2023-10-07T12:39:16.726Z,94788.56
2023-10-07T12:41:43.605Z,94795.53
2023-10-07T12:44:11.570Z,94798.00
2023-10-07T12:46:39.701Z,94807.91
2023-10-07T12:49:11.727Z,94801.19
2023-10-07T12:51:40.263Z,94790.84
2023-10-07T12:54:10.617Z,94800.34
2023-10-07T12:56:47.483Z,94796.03
2023-10-07T12:59:22.641Z,94796.22
2023-10-07T13:01:57.244Z,94800.91
2023-10-07T13:04:31.074Z,94798.88
2023-10-07T13:07:11.552Z,94786.69
2023-10-07T13:09:41.779Z,94793.38
2023-10-07T13:12:16.888Z,94796.53
2023-10-07T13:14:47.089Z,94790.66
2023-10-07T13:17:14.749Z,94785.59
2023-10-07T13:19:44.994Z,94791.03
2023-10-07T13:22:11.763Z,94790.97
2023-10-07T13:24:38.445Z,94786.22
2023-10-07T13:27:09.398Z,94786.22
2023-10-07T13:29:37.229Z,94792.22
2023-10-07T13:32:07.229Z,94776.66
2023-10-07T13:34:39.604Z,94782.94
2023-10-07T13:37:13.097Z,94775.91
2023-10-07T13:39:41.745Z,94769.75
2023-10-07T13:42:10.816Z,94777.94
2023-10-07T13:44:37.809Z,94768.88
2023-10-07T13:47:08.608Z,94772.81
2023-10-07T13:49:35.517Z,94775.25
2023-10-07T13:52:06.786Z,94770.31
2023-10-07T13:54:40.193Z,94787.09
2023-10-07T13:57:20.156Z,94781.31
2023-10-07T13:59:47.398Z,94776.53
2023-10-07T14:02:21.027Z,94782.72
2023-10-07T14:04:48.993Z,94786.47
2023-10-07T14:07:15.909Z,94779.59
2023-10-07T14:09:42.850Z,94781.38
2023-10-07T14:12:10.886Z,94782.25
2023-10-07T14:14:37.902Z,94777.13
2023-10-07T14:17:05.077Z,94774.91
2023-10-07T14:19:32.288Z,94783.00
2023-10-07T14:21:59.155Z,94778.50
2023-10-07T14:24:29.582Z,94778.63
2023-10-07T14:26:57.642Z,94782.13
2023-10-07T14:29:27.354Z,94782.19
2023-10-07T14:31:54.721Z,94787.25
2023-10-07T14:34:21.542Z,94787.50
2023-10-07T14:36:48.262Z,94792.00
2023-10-07T14:39:17.575Z,94796.44
2023-10-07T14:41:50.792Z,94784.22
2023-10-07T14:44:17.543Z,94789.66
2023-10-07T14:46:46.024Z,94791.66
2023-10-07T14:49:13.706Z,94791.16
2023-10-07T14:51:40.673Z,94795.78
2023-10-07T14:54:07.423Z,94793.00
2023-10-07T14:56:34.401Z,94791.31
2023-10-07T14:59:01.311Z,94793.16
2023-10-07T15:01:29.168Z,94797.69
2023-10-07T15:03:56.480Z,94800.66
2023-10-07T15:06:24.019Z,94802.34
2023-10-07T15:08:51.610Z,94802.16
2023-10-07T15:11:19.916Z,94801.72
2023-10-07T15:13:49.211Z,94796.13
2023-10-07T15:16:16.136Z,94805.44
2023-10-07T15:18:44.412Z,94801.44
2023-10-07T15:21:12.553Z,94797.41
2023-10-07T15:23:40.427Z,94793.78
2023-10-07T15:26:18.136Z,94799.63
2023-10-07T15:28:46.216Z,94806.28
2023-10-07T15:31:21.189Z,94799.06
2023-10-07T15:33:59.897Z,94807.00
2023-10-07T15:36:26.727Z,94805.94
2023-10-07T15:38:53.910Z,94813.63
2023-10-07T15:41:21.211Z,94811.78
2023-10-07T15:43:48.167Z,94813.16
2023-10-07T15:46:15.374Z,94820.06
2023-10-07T15:48:42.138Z,94820.69
2023-10-07T15:51:10.312Z,94818.50
2023-10-07T15:53:38.584Z,94816.97
2023-10-07T15:56:07.802Z,94829.38
2023-10-07T15:58:35.125Z,94833.69
2023-10-07T16:01:04.967Z,94831.22
2023-10-07T16:03:34.372Z,94839.75
2023-10-07T16:06:01.453Z,94845.94
2023-10-07T16:08:28.349Z,94844.78
2023-10-07T16:10:55.196Z,94850.41
2023-10-07T16:13:21.892Z,94846.75
2023-10-07T16:15:48.547Z,94849.72
2023-10-07T16:18:15.371Z,94851.59
2023-10-07T16:20:42.599Z,94855.59
2023-10-07T16:23:09.958Z,94841.56
2023-10-07T16:25:36.679Z,94847.94
2023-10-07T16:28:06.071Z,94856.47
2023-10-07T16:30:32.787Z,94847.47
2023-10-07T16:32:59.597Z,94858.91
2023-10-07T16:35:26.405Z,94857.97
2023-10-07T16:37:53.257Z,94855.88
2023-10-07T16:40:20.188Z,94866.81
2023-10-07T16:42:47.179Z,94872.66
2023-10-07T16:45:14.353Z,94874.28
2023-10-07T16:47:41.542Z,94875.03
2023-10-07T16:50:15.818Z,94878.88
2023-10-07T16:52:44.048Z,94877.16
2023-10-07T16:55:10.971Z,94879.53
2023-10-07T16:57:38.810Z,94877.00
2023-10-07T17:00:06.559Z,94881.19
2023-10-07T17:02:34.112Z,94880.75
2023-10-07T17:05:01.261Z,94873.00
2023-10-07T17:07:28.109Z,94879.16
2023-10-07T17:09:55.070Z,94876.72
2023-10-07T17:12:24.633Z,94881.34
2023-10-07T17:14:54.957Z,94878.75
2023-10-07T17:17:22.197Z,94873.03
2023-10-07T17:19:48.996Z,94880.28
2023-10-07T17:22:15.814Z,94875.81
2023-10-07T17:24:43.268Z,94885.06
2023-10-07T17:27:10.655Z,94873.88
2023-10-07T17:29:37.417Z,94890.25
2023-10-07T17:32:07.718Z,94895.50
2023-10-07T17:34:34.691Z,94892.50
2023-10-07T17:37:02.697Z,94894.78
2023-10-07T17:39:32.876Z,94894.88
2023-10-07T17:42:01.900Z,94901.25
2023-10-07T17:44:28.936Z,94899.94
2023-10-07T17:46:56.935Z,94902.06
2023-10-07T17:49:24.333Z,94904.16
2023-10-07T17:51:51.029Z,94896.31
2023-10-07T17:54:17.810Z,94890.13
2023-10-07T17:56:47.638Z,94895.88
2023-10-07T17:59:15.109Z,94892.53
2023-10-07T18:01:42.020Z,94897.00
2023-10-07T18:04:10.326Z,94894.38
2023-10-07T18:06:37.166Z,94903.13
2023-10-07T18:09:04.017Z,94909.19
2023-10-07T18:11:30.718Z,94902.25
2023-10-07T18:13:57.561Z,94903.97
2023-10-07T18:16:24.453Z,94907.94
2023-10-07T18:21:26.464Z,94901.44
2023-10-07T18:23:53.325Z,94908.16
2023-10-07T18:26:20.885Z,94907.84
2023-10-07T18:28:47.681Z,94901.47
2023-10-07T18:31:17.029Z,94893.31
2023-10-07T18:33:43.775Z,94896.13
2023-10-07T18:36:10.516Z,94899.38
2023-10-07T18:38:37.366Z,94893.06
2023-10-07T18:41:06.658Z,94897.03
2023-10-07T18:43:33.663Z,94898.97
2023-10-07T18:46:00.497Z,94897.75
2023-10-07T18:48:27.315Z,94895.59
2023-10-07T18:50:54.265Z,94899.06
2023-10-07T18:53:21.178Z,94897.38
2023-10-07T18:55:54.335Z,94899.41
2023-10-07T18:58:21.060Z,94892.63
2023-10-07T19:00:50.772Z,94896.13
2023-10-07T19:03:17.513Z,94892.19
2023-10-07T19:05:44.950Z,94897.34
2023-10-07T19:08:12.265Z,94889.06
2023-10-07T19:10:42.678Z,94893.75
2023-10-07T19:13:12.751Z,94895.31
2023-10-07T19:15:43.004Z,94896.63
2023-10-07T19:18:10.968Z,94895.06
2023-10-07T19:20:47.113Z,94895.53
2023-10-07T19:23:13.887Z,94896.06
2023-10-07T19:25:40.572Z,94901.25
2023-10-07T19:28:07.295Z,94904.53
2023-10-07T19:30:34.484Z,94899.06
2023-10-07T19:33:01.265Z,94909.31
2023-10-07T19:35:28.000Z,94912.88
2023-10-07T19:37:54.728Z,94906.63
2023-10-07T19:40:21.421Z,94914.94
2023-10-07T19:42:48.107Z,94902.41
2023-10-07T19:45:14.907Z,94910.34
2023-10-07T19:47:41.653Z,94914.72
2023-10-07T19:50:08.981Z,94916.34
2023-10-07T19:52:35.754Z,94927.81
2023-10-07T19:55:04.235Z,94919.94
2023-10-07T19:57:30.887Z,94918.41
2023-10-07T19:59:58.818Z,94920.81
2023-10-07T20:02:25.535Z,94921.22
2023-10-07T20:04:52.552Z,94924.38
2023-10-07T20:07:19.378Z,94920.84
2023-10-07T20:09:46.534Z,94916.53
2023-10-07T20:12:13.394Z,94924.06
2023-10-07T20:14:40.441Z,94922.91
2023-10-07T20:17:07.850Z,94926.47
2023-10-07T20:19:34.593Z,94922.94
2023-10-07T20:22:01.486Z,94919.81
2023-10-07T20:24:28.211Z,94921.84
2023-10-07T20:26:54.898Z,94917.56
2023-10-07T20:29:21.696Z,94919.53
2023-10-07T20:31:48.511Z,94917.22
2023-10-07T20:34:15.796Z,94926.66
2023-10-07T20:36:42.540Z,94928.25
2023-10-07T20:39:11.536Z,94932.16
2023-10-07T20:41:38.630Z,94931.00
2023-10-07T20:44:05.614Z,94938.47
2023-10-07T20:46:33.415Z,94935.34
2023-10-07T20:49:00.407Z,94937.72
2023-10-07T20:51:27.431Z,94935.38
2023-10-07T20:53:54.746Z,94936.56
2023-10-07T20:56:23.309Z,94937.38
2023-10-07T20:58:50.305Z,94941.28
2023-10-07T21:01:22.118Z,94936.22
2023-10-07T21:03:51.078Z,94942.88
2023-10-07T21:06:19.547Z,94931.53
2023-10-07T21:08:47.203Z,94929.94
2023-10-07T21:11:15.164Z,94924.06
2023-10-07T21:13:42.864Z,94914.69
2023-10-07T21:16:10.147Z,94915.84
2023-10-07T21:18:38.399Z,94918.59
2023-10-07T21:21:13.069Z,94914.28
2023-10-07T21:23:44.167Z,94918.19
2023-10-07T21:26:17.628Z,94920.56
2023-10-07T21:28:45.322Z,94916.25
2023-10-07T21:31:12.022Z,94926.84
2023-10-07T21:33:38.748Z,94919.03
2023-10-07T21:36:05.791Z,94913.91
2023-10-07T21:38:34.291Z,94917.06
2023-10-07T21:41:01.530Z,94906.47
2023-10-07T21:43:28.260Z,94904.50
2023-10-07T21:45:55.062Z,94905.66
2023-10-07T21:48:22.098Z,94909.22
2023-10-07T21:50:48.882Z,94901.75
2023-10-07T21:53:15.720Z,94894.69
2023-10-07T21:55:44.063Z,94893.13
2023-10-07T21:58:10.821Z,94898.22
2023-10-07T22:00:40.477Z,94889.59
2023-10-07T22:03:16.782Z,94903.25
2023-10-07T22:05:45.506Z,94909.97
2023-10-07T22:08:15.667Z,94904.47
2023-10-07T22:10:45.451Z,94902.50
2023-10-07T22:13:18.523Z,94890.75
2023-10-07T22:15:52.797Z,94882.53
2023-10-07T22:18:20.903Z,94888.00
2023-10-07T22:20:50.680Z,94884.09
2023-10-07T22:23:20.665Z,94891.94
2023-10-07T22:25:47.995Z,94887.59
2023-10-07T22:28:16.671Z,94896.59
2023-10-07T22:30:48.223Z,94895.41
2023-10-07T22:33:17.060Z,94895.78
2023-10-07T22:35:46.537Z,94893.38
2023-10-07T22:38:18.304Z,94890.25
2023-10-07T22:40:51.322Z,94905.16
2023-10-07T22:43:19.205Z,94891.44
2023-10-07T22:45:50.049Z,94901.63
2023-10-07T22:48:21.900Z,94891.03
2023-10-07T22:50:56.248Z,94901.63
2023-10-07T22:53:30.699Z,94896.53
2023-10-07T22:56:05.490Z,94909.44
2023-10-07T22:58:39.195Z,94903.16
2023-10-07T23:01:16.291Z,94897.66
2023-10-07T23:03:50.200Z,94897.63
2023-10-07T23:06:19.393Z,94904.28
2023-10-07T23:08:57.003Z,94895.69
2023-10-07T23:11:32.550Z,94899.16
2023-10-07T23:14:18.927Z,94892.53
2023-10-07T23:16:53.556Z,94897.59
2023-10-07T23:19:43.748Z,94891.72
2023-10-07T23:22:13.985Z,94894.88
2023-10-07T23:24:41.553Z,94890.16
2023-10-07T23:27:13.306Z,94893.28
2023-10-07T23:29:50.745Z,94891.72
2023-10-07T23:32:25.776Z,94890.53
2023-10-07T23:35:00.492Z,94897.97
2023-10-07T23:37:31.476Z,94897.59
2023-10-07T23:40:12.048Z,94892.09
2023-10-07T23:42:38.939Z,94895.22
2023-10-07T23:45:09.482Z,94886.19
2023-10-07T23:47:36.355Z,94888.13
2023-10-07T23:50:03.602Z,94885.34
2023-10-07T23:52:38.607Z,94888.47
2023-10-07T23:55:09.590Z,94892.00
2023-10-07T23:57:40.085Z,94881.78
